sensor_id;sensor_type;location;lat;lon;timestamp;P1;durP1;ratioP1;P2;durP2;ratioP2
54125;SDS011;40360;52.992;6.796;2022-11-20T00:00:28;23.60;;;15.50;;
54125;SDS011;40360;52.992;6.796;2022-11-20T00:02:54;26.35;;;15.18;;
54125;SDS011;40360;52.992;6.796;2022-11-20T00:05:19;29.45;;;16.15;;
54125;SDS011;40360;52.992;6.796;2022-11-20T00:07:46;25.10;;;15.25;;
54125;SDS011;40360;52.992;6.796;2022-11-20T00:10:12;26.42;;;15.95;;
54125;SDS011;40360;52.992;6.796;2022-11-20T00:12:37;29.50;;;17.27;;
54125;SDS011;40360;52.992;6.796;2022-11-20T00:15:03;37.60;;;19.58;;
54125;SDS011;40360;52.992;6.796;2022-11-20T00:17:29;26.08;;;16.35;;
54125;SDS011;40360;52.992;6.796;2022-11-20T00:19:55;26.05;;;17.35;;
54125;SDS011;40360;52.992;6.796;2022-11-20T00:22:20;28.38;;;17.58;;
54125;SDS011;40360;52.992;6.796;2022-11-20T00:24:46;27.00;;;17.42;;
54125;SDS011;40360;52.992;6.796;2022-11-20T00:27:12;27.42;;;16.67;;
54125;SDS011;40360;52.992;6.796;2022-11-20T00:29:38;25.42;;;14.02;;
54125;SDS011;40360;52.992;6.796;2022-11-20T00:32:04;20.27;;;13.07;;
54125;SDS011;40360;52.992;6.796;2022-11-20T00:34:29;19.20;;;12.55;;
54125;SDS011;40360;52.992;6.796;2022-11-20T00:36:58;18.83;;;11.95;;
54125;SDS011;40360;52.992;6.796;2022-11-20T00:39:23;22.55;;;13.55;;
54125;SDS011;40360;52.992;6.796;2022-11-20T00:41:49;18.50;;;12.95;;
54125;SDS011;40360;52.992;6.796;2022-11-20T00:44:15;20.05;;;12.60;;
54125;SDS011;40360;52.992;6.796;2022-11-20T00:46:40;20.55;;;12.80;;
54125;SDS011;40360;52.992;6.796;2022-11-20T00:49:06;18.90;;;12.18;;
54125;SDS011;40360;52.992;6.796;2022-11-20T00:51:32;15.32;;;10.85;;
54125;SDS011;40360;52.992;6.796;2022-11-20T00:53:57;19.73;;;12.48;;
54125;SDS011;40360;52.992;6.796;2022-11-20T00:56:24;19.60;;;11.70;;
54125;SDS011;40360;52.992;6.796;2022-11-20T00:58:50;16.75;;;11.05;;
54125;SDS011;40360;52.992;6.796;2022-11-20T01:01:20;19.27;;;11.93;;
54125;SDS011;40360;52.992;6.796;2022-11-20T01:03:50;17.73;;;11.63;;
54125;SDS011;40360;52.992;6.796;2022-11-20T01:06:24;19.70;;;12.25;;
54125;SDS011;40360;52.992;6.796;2022-11-20T01:08:50;17.95;;;12.10;;
54125;SDS011;40360;52.992;6.796;2022-11-20T01:11:20;19.67;;;13.27;;
54125;SDS011;40360;52.992;6.796;2022-11-20T01:13:54;18.27;;;12.20;;
54125;SDS011;40360;52.992;6.796;2022-11-20T01:16:22;18.88;;;12.50;;
54125;SDS011;40360;52.992;6.796;2022-11-20T01:18:53;20.20;;;12.50;;
54125;SDS011;40360;52.992;6.796;2022-11-20T01:21:23;19.75;;;13.30;;
54125;SDS011;40360;52.992;6.796;2022-11-20T01:23:51;18.58;;;11.82;;
54125;SDS011;40360;52.992;6.796;2022-11-20T01:26:21;19.67;;;12.52;;
54125;SDS011;40360;52.992;6.796;2022-11-20T01:28:49;19.88;;;13.00;;
54125;SDS011;40360;52.992;6.796;2022-11-20T01:31:17;21.25;;;12.57;;
54125;SDS011;40360;52.992;6.796;2022-11-20T01:33:43;21.27;;;13.82;;
54125;SDS011;40360;52.992;6.796;2022-11-20T01:36:12;19.85;;;12.52;;
54125;SDS011;40360;52.992;6.796;2022-11-20T01:38:38;23.75;;;13.95;;
54125;SDS011;40360;52.992;6.796;2022-11-20T01:41:05;19.13;;;12.68;;
54125;SDS011;40360;52.992;6.796;2022-11-20T01:43:31;16.33;;;11.85;;
54125;SDS011;40360;52.992;6.796;2022-11-20T01:53:49;20.67;;;11.65;;
54125;SDS011;40360;52.992;6.796;2022-11-20T01:56:16;19.90;;;12.45;;
54125;SDS011;40360;52.992;6.796;2022-11-20T01:58:44;15.95;;;11.80;;
54125;SDS011;40360;52.992;6.796;2022-11-20T02:01:20;18.25;;;12.00;;
54125;SDS011;40360;52.992;6.796;2022-11-20T02:03:47;17.35;;;12.02;;
54125;SDS011;40360;52.992;6.796;2022-11-20T02:06:30;17.27;;;12.90;;
54125;SDS011;40360;52.992;6.796;2022-11-20T02:09:00;35.75;;;21.63;;
54125;SDS011;40360;52.992;6.796;2022-11-20T02:11:26;23.02;;;14.80;;
54125;SDS011;40360;52.992;6.796;2022-11-20T02:13:52;21.90;;;14.32;;
54125;SDS011;40360;52.992;6.796;2022-11-20T02:16:23;21.33;;;14.23;;
54125;SDS011;40360;52.992;6.796;2022-11-20T02:18:59;18.77;;;12.60;;
54125;SDS011;40360;52.992;6.796;2022-11-20T02:24:18;20.52;;;12.93;;
54125;SDS011;40360;52.992;6.796;2022-11-20T02:29:37;18.83;;;12.50;;
54125;SDS011;40360;52.992;6.796;2022-11-20T02:34:44;21.08;;;12.38;;
54125;SDS011;40360;52.992;6.796;2022-11-20T02:37:10;21.63;;;14.00;;
54125;SDS011;40360;52.992;6.796;2022-11-20T02:39:35;21.83;;;13.55;;
54125;SDS011;40360;52.992;6.796;2022-11-20T02:42:01;20.98;;;12.20;;
54125;SDS011;40360;52.992;6.796;2022-11-20T02:44:27;19.88;;;13.75;;
54125;SDS011;40360;52.992;6.796;2022-11-20T02:46:53;17.30;;;12.32;;
54125;SDS011;40360;52.992;6.796;2022-11-20T02:49:21;21.85;;;13.98;;
54125;SDS011;40360;52.992;6.796;2022-11-20T02:51:47;19.00;;;13.05;;
54125;SDS011;40360;52.992;6.796;2022-11-20T02:54:12;23.35;;;15.05;;
54125;SDS011;40360;52.992;6.796;2022-11-20T02:56:38;19.30;;;13.50;;
54125;SDS011;40360;52.992;6.796;2022-11-20T02:59:04;20.38;;;13.20;;
54125;SDS011;40360;52.992;6.796;2022-11-20T03:01:30;23.20;;;14.02;;
54125;SDS011;40360;52.992;6.796;2022-11-20T03:03:55;20.60;;;13.77;;
54125;SDS011;40360;52.992;6.796;2022-11-20T03:06:21;19.05;;;13.20;;
54125;SDS011;40360;52.992;6.796;2022-11-20T03:08:47;21.35;;;13.60;;
54125;SDS011;40360;52.992;6.796;2022-11-20T03:11:13;24.13;;;15.85;;
54125;SDS011;40360;52.992;6.796;2022-11-20T03:13:39;24.23;;;15.88;;
54125;SDS011;40360;52.992;6.796;2022-11-20T03:16:23;38.33;;;23.98;;
54125;SDS011;40360;52.992;6.796;2022-11-20T03:18:49;32.30;;;21.83;;
54125;SDS011;40360;52.992;6.796;2022-11-20T03:21:17;22.85;;;15.40;;
54125;SDS011;40360;52.992;6.796;2022-11-20T03:23:43;20.05;;;13.73;;
54125;SDS011;40360;52.992;6.796;2022-11-20T03:26:13;21.63;;;14.30;;
54125;SDS011;40360;52.992;6.796;2022-11-20T03:28:50;20.73;;;14.68;;
54125;SDS011;40360;52.992;6.796;2022-11-20T03:31:18;19.60;;;13.52;;
54125;SDS011;40360;52.992;6.796;2022-11-20T03:33:47;21.48;;;13.63;;
54125;SDS011;40360;52.992;6.796;2022-11-20T03:36:13;21.40;;;13.88;;
54125;SDS011;40360;52.992;6.796;2022-11-20T03:38:40;19.98;;;13.75;;
54125;SDS011;40360;52.992;6.796;2022-11-20T03:41:11;19.52;;;13.82;;
54125;SDS011;40360;52.992;6.796;2022-11-20T03:43:38;19.83;;;13.02;;
54125;SDS011;40360;52.992;6.796;2022-11-20T03:46:04;18.17;;;12.90;;
54125;SDS011;40360;52.992;6.796;2022-11-20T03:48:31;19.48;;;13.57;;
54125;SDS011;40360;52.992;6.796;2022-11-20T03:51:10;19.52;;;13.05;;
54125;SDS011;40360;52.992;6.796;2022-11-20T03:53:41;19.30;;;12.93;;
54125;SDS011;40360;52.992;6.796;2022-11-20T03:56:08;18.55;;;13.02;;
54125;SDS011;40360;52.992;6.796;2022-11-20T03:58:35;20.13;;;14.82;;
54125;SDS011;40360;52.992;6.796;2022-11-20T04:01:09;17.67;;;12.88;;
54125;SDS011;40360;52.992;6.796;2022-11-20T04:03:37;19.70;;;12.57;;
54125;SDS011;40360;52.992;6.796;2022-11-20T04:06:08;19.65;;;13.32;;
54125;SDS011;40360;52.992;6.796;2022-11-20T04:08:40;17.30;;;12.70;;
54125;SDS011;40360;52.992;6.796;2022-11-20T04:13:36;20.77;;;14.20;;
54125;SDS011;40360;52.992;6.796;2022-11-20T04:16:02;18.08;;;12.57;;
54125;SDS011;40360;52.992;6.796;2022-11-20T04:18:27;18.25;;;13.20;;
54125;SDS011;40360;52.992;6.796;2022-11-20T04:20:53;16.23;;;12.48;;
54125;SDS011;40360;52.992;6.796;2022-11-20T04:23:21;21.02;;;13.05;;
54125;SDS011;40360;52.992;6.796;2022-11-20T04:25:46;18.98;;;13.07;;
54125;SDS011;40360;52.992;6.796;2022-11-20T04:28:12;19.17;;;12.60;;
54125;SDS011;40360;52.992;6.796;2022-11-20T04:30:37;16.25;;;11.50;;
54125;SDS011;40360;52.992;6.796;2022-11-20T04:33:03;16.58;;;11.90;;
54125;SDS011;40360;52.992;6.796;2022-11-20T04:35:28;18.15;;;12.60;;
54125;SDS011;40360;52.992;6.796;2022-11-20T04:37:54;22.27;;;12.82;;
54125;SDS011;40360;52.992;6.796;2022-11-20T04:40:19;18.02;;;11.98;;
54125;SDS011;40360;52.992;6.796;2022-11-20T04:42:45;19.95;;;12.90;;
54125;SDS011;40360;52.992;6.796;2022-11-20T04:45:11;19.48;;;12.10;;
54125;SDS011;40360;52.992;6.796;2022-11-20T04:47:36;19.90;;;13.45;;
54125;SDS011;40360;52.992;6.796;2022-11-20T04:50:02;18.58;;;12.93;;
54125;SDS011;40360;52.992;6.796;2022-11-20T04:52:28;19.70;;;12.52;;
54125;SDS011;40360;52.992;6.796;2022-11-20T04:54:53;18.70;;;12.50;;
54125;SDS011;40360;52.992;6.796;2022-11-20T04:57:19;18.83;;;12.02;;
54125;SDS011;40360;52.992;6.796;2022-11-20T04:59:45;17.27;;;11.80;;
54125;SDS011;40360;52.992;6.796;2022-11-20T05:02:10;19.85;;;12.63;;
54125;SDS011;40360;52.992;6.796;2022-11-20T05:19:48;17.42;;;11.30;;
54125;SDS011;40360;52.992;6.796;2022-11-20T05:22:14;17.45;;;11.65;;
54125;SDS011;40360;52.992;6.796;2022-11-20T05:24:39;18.38;;;12.05;;
54125;SDS011;40360;52.992;6.796;2022-11-20T05:27:05;15.65;;;11.10;;
54125;SDS011;40360;52.992;6.796;2022-11-20T05:29:30;15.23;;;11.07;;
54125;SDS011;40360;52.992;6.796;2022-11-20T05:31:56;17.67;;;11.00;;
54125;SDS011;40360;52.992;6.796;2022-11-20T05:34:22;15.00;;;10.68;;
54125;SDS011;40360;52.992;6.796;2022-11-20T05:36:47;15.55;;;11.30;;
54125;SDS011;40360;52.992;6.796;2022-11-20T05:39:13;14.90;;;11.25;;
54125;SDS011;40360;52.992;6.796;2022-11-20T05:41:41;15.55;;;10.73;;
54125;SDS011;40360;52.992;6.796;2022-11-20T05:44:09;18.55;;;12.93;;
54125;SDS011;40360;52.992;6.796;2022-11-20T05:46:37;15.90;;;10.68;;
54125;SDS011;40360;52.992;6.796;2022-11-20T05:49:02;15.38;;;11.40;;
54125;SDS011;40360;52.992;6.796;2022-11-20T05:51:28;21.67;;;13.07;;
54125;SDS011;40360;52.992;6.796;2022-11-20T05:53:55;17.60;;;12.02;;
54125;SDS011;40360;52.992;6.796;2022-11-20T05:56:22;19.23;;;11.73;;
54125;SDS011;40360;52.992;6.796;2022-11-20T05:58:48;17.52;;;11.35;;
54125;SDS011;40360;52.992;6.796;2022-11-20T06:03:40;20.48;;;12.18;;
54125;SDS011;40360;52.992;6.796;2022-11-20T06:06:07;14.75;;;11.18;;
54125;SDS011;40360;52.992;6.796;2022-11-20T06:08:33;17.63;;;11.70;;
54125;SDS011;40360;52.992;6.796;2022-11-20T06:11:02;16.88;;;11.63;;
54125;SDS011;40360;52.992;6.796;2022-11-20T06:13:32;16.58;;;12.05;;
54125;SDS011;40360;52.992;6.796;2022-11-20T06:15:58;17.23;;;11.23;;
54125;SDS011;40360;52.992;6.796;2022-11-20T06:18:25;17.05;;;10.60;;
54125;SDS011;40360;52.992;6.796;2022-11-20T06:20:58;16.38;;;10.68;;
54125;SDS011;40360;52.992;6.796;2022-11-20T06:23:34;17.40;;;11.15;;
54125;SDS011;40360;52.992;6.796;2022-11-20T06:26:04;15.45;;;11.10;;
54125;SDS011;40360;52.992;6.796;2022-11-20T06:28:35;14.75;;;10.05;;
54125;SDS011;40360;52.992;6.796;2022-11-20T06:31:04;16.13;;;10.27;;
54125;SDS011;40360;52.992;6.796;2022-11-20T06:33:30;16.17;;;10.63;;
54125;SDS011;40360;52.992;6.796;2022-11-20T06:35:56;14.60;;;10.20;;
54125;SDS011;40360;52.992;6.796;2022-11-20T06:38:23;14.50;;;9.95;;
54125;SDS011;40360;52.992;6.796;2022-11-20T06:40:49;15.63;;;11.13;;
54125;SDS011;40360;52.992;6.796;2022-11-20T06:43:15;14.50;;;10.07;;
54125;SDS011;40360;52.992;6.796;2022-11-20T06:45:41;13.75;;;9.70;;
54125;SDS011;40360;52.992;6.796;2022-11-20T06:48:06;15.43;;;10.32;;
54125;SDS011;40360;52.992;6.796;2022-11-20T06:50:32;15.10;;;10.75;;
54125;SDS011;40360;52.992;6.796;2022-11-20T06:53:00;15.45;;;10.27;;
54125;SDS011;40360;52.992;6.796;2022-11-20T06:55:27;17.05;;;10.65;;
54125;SDS011;40360;52.992;6.796;2022-11-20T06:57:53;15.20;;;10.75;;
54125;SDS011;40360;52.992;6.796;2022-11-20T07:00:18;15.00;;;11.23;;
54125;SDS011;40360;52.992;6.796;2022-11-20T07:02:44;19.85;;;13.10;;
54125;SDS011;40360;52.992;6.796;2022-11-20T07:05:09;17.75;;;12.32;;
54125;SDS011;40360;52.992;6.796;2022-11-20T07:07:35;14.57;;;10.10;;
54125;SDS011;40360;52.992;6.796;2022-11-20T07:10:01;12.63;;;9.15;;
54125;SDS011;40360;52.992;6.796;2022-11-20T07:12:26;14.48;;;9.82;;
54125;SDS011;40360;52.992;6.796;2022-11-20T07:14:52;12.95;;;9.02;;
54125;SDS011;40360;52.992;6.796;2022-11-20T07:17:18;15.45;;;9.38;;
54125;SDS011;40360;52.992;6.796;2022-11-20T07:19:44;11.82;;;8.57;;
54125;SDS011;40360;52.992;6.796;2022-11-20T07:22:10;14.02;;;9.82;;
54125;SDS011;40360;52.992;6.796;2022-11-20T07:24:36;11.13;;;8.32;;
54125;SDS011;40360;52.992;6.796;2022-11-20T07:27:01;11.93;;;8.50;;
54125;SDS011;40360;52.992;6.796;2022-11-20T07:29:27;13.18;;;9.52;;
54125;SDS011;40360;52.992;6.796;2022-11-20T07:31:52;14.82;;;9.55;;
54125;SDS011;40360;52.992;6.796;2022-11-20T07:34:20;13.02;;;9.27;;
54125;SDS011;40360;52.992;6.796;2022-11-20T07:36:46;13.38;;;9.15;;
54125;SDS011;40360;52.992;6.796;2022-11-20T07:39:11;13.30;;;9.35;;
54125;SDS011;40360;52.992;6.796;2022-11-20T07:41:37;16.38;;;10.82;;
54125;SDS011;40360;52.992;6.796;2022-11-20T07:44:03;12.07;;;8.77;;
54125;SDS011;40360;52.992;6.796;2022-11-20T07:46:28;14.43;;;9.38;;
54125;SDS011;40360;52.992;6.796;2022-11-20T07:48:54;14.10;;;9.93;;
54125;SDS011;40360;52.992;6.796;2022-11-20T07:51:20;15.82;;;10.98;;
54125;SDS011;40360;52.992;6.796;2022-11-20T07:53:45;15.85;;;10.93;;
54125;SDS011;40360;52.992;6.796;2022-11-20T07:56:11;12.55;;;9.82;;
54125;SDS011;40360;52.992;6.796;2022-11-20T07:58:39;14.95;;;9.90;;
54125;SDS011;40360;52.992;6.796;2022-11-20T08:01:05;14.80;;;9.75;;
54125;SDS011;40360;52.992;6.796;2022-11-20T08:03:31;15.68;;;10.05;;
54125;SDS011;40360;52.992;6.796;2022-11-20T08:06:00;15.75;;;10.20;;
54125;SDS011;40360;52.992;6.796;2022-11-20T08:08:27;12.93;;;9.55;;
54125;SDS011;40360;52.992;6.796;2022-11-20T08:10:53;13.32;;;9.05;;
54125;SDS011;40360;52.992;6.796;2022-11-20T08:13:39;15.18;;;10.70;;
54125;SDS011;40360;52.992;6.796;2022-11-20T08:16:23;13.60;;;9.38;;
54125;SDS011;40360;52.992;6.796;2022-11-20T08:18:48;15.73;;;9.73;;
54125;SDS011;40360;52.992;6.796;2022-11-20T08:21:14;17.63;;;10.25;;
54125;SDS011;40360;52.992;6.796;2022-11-20T08:23:41;14.30;;;9.82;;
54125;SDS011;40360;52.992;6.796;2022-11-20T08:26:06;12.70;;;9.52;;
54125;SDS011;40360;52.992;6.796;2022-11-20T08:28:32;12.55;;;8.60;;
54125;SDS011;40360;52.992;6.796;2022-11-20T08:30:59;15.55;;;9.90;;
54125;SDS011;40360;52.992;6.796;2022-11-20T08:33:25;13.02;;;9.98;;
54125;SDS011;40360;52.992;6.796;2022-11-20T08:35:51;13.70;;;8.75;;
54125;SDS011;40360;52.992;6.796;2022-11-20T08:38:16;13.77;;;9.77;;
54125;SDS011;40360;52.992;6.796;2022-11-20T08:40:42;13.57;;;8.93;;
54125;SDS011;40360;52.992;6.796;2022-11-20T08:43:28;12.20;;;8.55;;
54125;SDS011;40360;52.992;6.796;2022-11-20T08:45:56;14.15;;;8.57;;
54125;SDS011;40360;52.992;6.796;2022-11-20T08:48:22;12.38;;;9.40;;
54125;SDS011;40360;52.992;6.796;2022-11-20T08:50:47;14.00;;;9.38;;
54125;SDS011;40360;52.992;6.796;2022-11-20T08:53:13;11.82;;;8.40;;
54125;SDS011;40360;52.992;6.796;2022-11-20T08:55:38;15.07;;;8.73;;
54125;SDS011;40360;52.992;6.796;2022-11-20T08:58:04;13.30;;;8.80;;
54125;SDS011;40360;52.992;6.796;2022-11-20T09:00:31;12.88;;;8.55;;
54125;SDS011;40360;52.992;6.796;2022-11-20T09:02:57;13.45;;;8.80;;
54125;SDS011;40360;52.992;6.796;2022-11-20T09:05:26;13.73;;;9.35;;
54125;SDS011;40360;52.992;6.796;2022-11-20T09:07:56;11.80;;;8.95;;
54125;SDS011;40360;52.992;6.796;2022-11-20T09:10:23;14.15;;;9.02;;
54125;SDS011;40360;52.992;6.796;2022-11-20T09:12:49;11.75;;;8.68;;
54125;SDS011;40360;52.992;6.796;2022-11-20T09:15:16;14.55;;;9.00;;
54125;SDS011;40360;52.992;6.796;2022-11-20T09:17:42;13.10;;;9.43;;
54125;SDS011;40360;52.992;6.796;2022-11-20T09:20:15;12.63;;;9.23;;
54125;SDS011;40360;52.992;6.796;2022-11-20T09:22:41;12.30;;;8.50;;
54125;SDS011;40360;52.992;6.796;2022-11-20T09:25:06;13.30;;;9.02;;
54125;SDS011;40360;52.992;6.796;2022-11-20T09:27:32;12.57;;;8.70;;
54125;SDS011;40360;52.992;6.796;2022-11-20T09:29:58;13.32;;;8.90;;
54125;SDS011;40360;52.992;6.796;2022-11-20T09:32:24;10.88;;;8.13;;
54125;SDS011;40360;52.992;6.796;2022-11-20T09:34:50;11.52;;;8.82;;
54125;SDS011;40360;52.992;6.796;2022-11-20T09:37:15;21.08;;;8.68;;
54125;SDS011;40360;52.992;6.796;2022-11-20T09:39:41;11.88;;;8.20;;
54125;SDS011;40360;52.992;6.796;2022-11-20T09:51:27;14.40;;;8.98;;
54125;SDS011;40360;52.992;6.796;2022-11-20T09:56:59;12.77;;;9.57;;
54125;SDS011;40360;52.992;6.796;2022-11-20T09:59:37;11.73;;;8.98;;
54125;SDS011;40360;52.992;6.796;2022-11-20T10:02:11;12.30;;;8.48;;
54125;SDS011;40360;52.992;6.796;2022-11-20T10:04:47;12.68;;;7.93;;
54125;SDS011;40360;52.992;6.796;2022-11-20T10:07:17;12.82;;;8.15;;
54125;SDS011;40360;52.992;6.796;2022-11-20T10:10:14;11.30;;;8.23;;
54125;SDS011;40360;52.992;6.796;2022-11-20T10:26:16;11.70;;;8.25;;
54125;SDS011;40360;52.992;6.796;2022-11-20T10:28:55;11.90;;;8.15;;
54125;SDS011;40360;52.992;6.796;2022-11-20T10:31:45;13.27;;;9.38;;
54125;SDS011;40360;52.992;6.796;2022-11-20T10:34:35;11.45;;;7.93;;
54125;SDS011;40360;52.992;6.796;2022-11-20T10:37:13;14.20;;;7.80;;
54125;SDS011;40360;52.992;6.796;2022-11-20T10:39:50;10.70;;;8.30;;
54125;SDS011;40360;52.992;6.796;2022-11-20T10:42:33;11.40;;;8.30;;
54125;SDS011;40360;52.992;6.796;2022-11-20T10:45:09;10.52;;;7.57;;
54125;SDS011;40360;52.992;6.796;2022-11-20T10:47:42;11.13;;;7.82;;
54125;SDS011;40360;52.992;6.796;2022-11-20T10:50:09;11.68;;;8.32;;
54125;SDS011;40360;52.992;6.796;2022-11-20T10:55:47;11.30;;;7.70;;
54125;SDS011;40360;52.992;6.796;2022-11-20T10:58:30;10.90;;;8.02;;
54125;SDS011;40360;52.992;6.796;2022-11-20T11:01:15;10.88;;;7.57;;
54125;SDS011;40360;52.992;6.796;2022-11-20T11:03:43;8.93;;;6.85;;
54125;SDS011;40360;52.992;6.796;2022-11-20T11:09:04;10.55;;;7.55;;
54125;SDS011;40360;52.992;6.796;2022-11-20T11:11:37;10.05;;;7.13;;
54125;SDS011;40360;52.992;6.796;2022-11-20T11:14:07;9.18;;;6.65;;
54125;SDS011;40360;52.992;6.796;2022-11-20T11:16:35;10.10;;;7.30;;
54125;SDS011;40360;52.992;6.796;2022-11-20T11:19:11;10.23;;;7.38;;
54125;SDS011;40360;52.992;6.796;2022-11-20T11:21:38;8.73;;;7.13;;
54125;SDS011;40360;52.992;6.796;2022-11-20T11:24:18;9.48;;;6.80;;
54125;SDS011;40360;52.992;6.796;2022-11-20T11:26:50;9.00;;;7.18;;
54125;SDS011;40360;52.992;6.796;2022-11-20T11:29:24;7.93;;;6.00;;
54125;SDS011;40360;52.992;6.796;2022-11-20T11:32:07;8.05;;;6.15;;
54125;SDS011;40360;52.992;6.796;2022-11-20T11:34:39;6.20;;;4.55;;
54125;SDS011;40360;52.992;6.796;2022-11-20T11:37:10;6.30;;;5.25;;
54125;SDS011;40360;52.992;6.796;2022-11-20T11:39:46;7.22;;;4.63;;
54125;SDS011;40360;52.992;6.796;2022-11-20T11:42:15;8.27;;;5.00;;
54125;SDS011;40360;52.992;6.796;2022-11-20T11:44:44;7.85;;;5.55;;
54125;SDS011;40360;52.992;6.796;2022-11-20T11:47:30;7.32;;;5.32;;
54125;SDS011;40360;52.992;6.796;2022-11-20T11:55:38;7.43;;;5.63;;
54125;SDS011;40360;52.992;6.796;2022-11-20T12:00:41;8.80;;;6.63;;
54125;SDS011;40360;52.992;6.796;2022-11-20T12:03:19;10.52;;;6.82;;
54125;SDS011;40360;52.992;6.796;2022-11-20T12:05:59;10.20;;;6.22;;
54125;SDS011;40360;52.992;6.796;2022-11-20T12:16:13;11.15;;;7.47;;
54125;SDS011;40360;52.992;6.796;2022-11-20T12:18:40;9.27;;;6.95;;
54125;SDS011;40360;52.992;6.796;2022-11-20T12:21:12;8.82;;;6.15;;
54125;SDS011;40360;52.992;6.796;2022-11-20T12:26:49;8.70;;;6.45;;
54125;SDS011;40360;52.992;6.796;2022-11-20T12:29:29;8.93;;;6.53;;
54125;SDS011;40360;52.992;6.796;2022-11-20T12:37:21;9.50;;;6.22;;
54125;SDS011;40360;52.992;6.796;2022-11-20T12:40:01;8.80;;;5.97;;
54125;SDS011;40360;52.992;6.796;2022-11-20T12:42:42;8.90;;;6.38;;
54125;SDS011;40360;52.992;6.796;2022-11-20T12:45:48;7.50;;;5.45;;
54125;SDS011;40360;52.992;6.796;2022-11-20T12:51:31;8.55;;;6.40;;
54125;SDS011;40360;52.992;6.796;2022-11-20T12:54:22;7.63;;;6.60;;
54125;SDS011;40360;52.992;6.796;2022-11-20T12:57:09;10.55;;;6.68;;
54125;SDS011;40360;52.992;6.796;2022-11-20T13:05:21;10.95;;;7.57;;
54125;SDS011;40360;52.992;6.796;2022-11-20T13:10:23;11.75;;;7.82;;
54125;SDS011;40360;52.992;6.796;2022-11-20T13:19:03;11.07;;;8.18;;
54125;SDS011;40360;52.992;6.796;2022-11-20T13:21:43;11.88;;;8.30;;
54125;SDS011;40360;52.992;6.796;2022-11-20T13:24:25;11.00;;;8.52;;
54125;SDS011;40360;52.992;6.796;2022-11-20T13:27:04;9.95;;;6.97;;
54125;SDS011;40360;52.992;6.796;2022-11-20T13:29:34;9.18;;;6.95;;
54125;SDS011;40360;52.992;6.796;2022-11-20T13:32:02;9.38;;;7.25;;
54125;SDS011;40360;52.992;6.796;2022-11-20T13:34:30;8.65;;;7.22;;
54125;SDS011;40360;52.992;6.796;2022-11-20T13:36:56;10.57;;;7.90;;
54125;SDS011;40360;52.992;6.796;2022-11-20T13:39:29;10.73;;;7.72;;
54125;SDS011;40360;52.992;6.796;2022-11-20T13:42:18;10.85;;;7.93;;
54125;SDS011;40360;52.992;6.796;2022-11-20T13:44:53;12.82;;;8.25;;
54125;SDS011;40360;52.992;6.796;2022-11-20T13:47:26;9.45;;;7.10;;
54125;SDS011;40360;52.992;6.796;2022-11-20T13:49:53;11.63;;;7.93;;
54125;SDS011;40360;52.992;6.796;2022-11-20T13:52:29;10.30;;;7.95;;
54125;SDS011;40360;52.992;6.796;2022-11-20T14:00:22;10.68;;;8.15;;
54125;SDS011;40360;52.992;6.796;2022-11-20T14:05:40;10.15;;;7.85;;
54125;SDS011;40360;52.992;6.796;2022-11-20T14:08:20;10.40;;;7.88;;
54125;SDS011;40360;52.992;6.796;2022-11-20T14:11:01;11.15;;;7.55;;
54125;SDS011;40360;52.992;6.796;2022-11-20T14:13:28;12.30;;;8.43;;
54125;SDS011;40360;52.992;6.796;2022-11-20T14:15:57;11.98;;;8.40;;
54125;SDS011;40360;52.992;6.796;2022-11-20T14:18:24;11.25;;;8.38;;
54125;SDS011;40360;52.992;6.796;2022-11-20T14:20:52;9.05;;;7.18;;
54125;SDS011;40360;52.992;6.796;2022-11-20T14:23:28;10.18;;;7.65;;
54125;SDS011;40360;52.992;6.796;2022-11-20T14:25:54;9.57;;;7.53;;
54125;SDS011;40360;52.992;6.796;2022-11-20T14:28:27;10.70;;;8.25;;
54125;SDS011;40360;52.992;6.796;2022-11-20T14:30:54;12.35;;;8.35;;
54125;SDS011;40360;52.992;6.796;2022-11-20T14:33:20;11.05;;;8.13;;
54125;SDS011;40360;52.992;6.796;2022-11-20T14:35:56;10.48;;;7.88;;
54125;SDS011;40360;52.992;6.796;2022-11-20T14:38:25;11.80;;;8.02;;
54125;SDS011;40360;52.992;6.796;2022-11-20T14:40:52;10.15;;;7.75;;
54125;SDS011;40360;52.992;6.796;2022-11-20T14:43:36;9.93;;;7.75;;
54125;SDS011;40360;52.992;6.796;2022-11-20T14:46:07;11.15;;;7.97;;
54125;SDS011;40360;52.992;6.796;2022-11-20T14:48:39;14.40;;;10.13;;
54125;SDS011;40360;52.992;6.796;2022-11-20T14:51:11;13.98;;;10.88;;
54125;SDS011;40360;52.992;6.796;2022-11-20T14:53:47;15.45;;;10.73;;
54125;SDS011;40360;52.992;6.796;2022-11-20T14:56:13;13.30;;;10.02;;
54125;SDS011;40360;52.992;6.796;2022-11-20T14:58:54;13.50;;;10.57;;
54125;SDS011;40360;52.992;6.796;2022-11-20T15:01:25;13.88;;;9.73;;
54125;SDS011;40360;52.992;6.796;2022-11-20T15:03:59;16.05;;;9.63;;
54125;SDS011;40360;52.992;6.796;2022-11-20T15:06:26;13.45;;;10.65;;
54125;SDS011;40360;52.992;6.796;2022-11-20T15:08:52;14.75;;;11.05;;
54125;SDS011;40360;52.992;6.796;2022-11-20T15:11:19;14.05;;;10.70;;
54125;SDS011;40360;52.992;6.796;2022-11-20T15:13:53;15.65;;;10.65;;
54125;SDS011;40360;52.992;6.796;2022-11-20T15:16:19;13.52;;;10.07;;
54125;SDS011;40360;52.992;6.796;2022-11-20T15:18:46;15.85;;;11.38;;
54125;SDS011;40360;52.992;6.796;2022-11-20T15:21:13;14.27;;;10.23;;
54125;SDS011;40360;52.992;6.796;2022-11-20T15:23:41;16.60;;;10.63;;
54125;SDS011;40360;52.992;6.796;2022-11-20T15:26:08;14.82;;;10.95;;
54125;SDS011;40360;52.992;6.796;2022-11-20T15:28:41;15.60;;;10.85;;
54125;SDS011;40360;52.992;6.796;2022-11-20T15:31:10;15.13;;;10.32;;
54125;SDS011;40360;52.992;6.796;2022-11-20T15:33:37;14.98;;;11.13;;
54125;SDS011;40360;52.992;6.796;2022-11-20T15:36:03;15.18;;;10.05;;
54125;SDS011;40360;52.992;6.796;2022-11-20T15:38:29;16.70;;;11.95;;
54125;SDS011;40360;52.992;6.796;2022-11-20T15:40:54;16.40;;;11.35;;
54125;SDS011;40360;52.992;6.796;2022-11-20T15:43:20;22.52;;;11.30;;
54125;SDS011;40360;52.992;6.796;2022-11-20T15:45:46;17.13;;;12.15;;
54125;SDS011;40360;52.992;6.796;2022-11-20T15:50:56;15.82;;;12.00;;
54125;SDS011;40360;52.992;6.796;2022-11-20T15:53:26;14.70;;;10.50;;
54125;SDS011;40360;52.992;6.796;2022-11-20T15:55:52;17.15;;;11.18;;
54125;SDS011;40360;52.992;6.796;2022-11-20T15:58:17;13.00;;;10.50;;
54125;SDS011;40360;52.992;6.796;2022-11-20T16:00:43;14.45;;;10.68;;
54125;SDS011;40360;52.992;6.796;2022-11-20T16:03:10;15.48;;;10.23;;
54125;SDS011;40360;52.992;6.796;2022-11-20T16:05:37;13.82;;;10.32;;
54125;SDS011;40360;52.992;6.796;2022-11-20T16:08:02;15.00;;;10.75;;
54125;SDS011;40360;52.992;6.796;2022-11-20T16:10:28;14.70;;;11.10;;
54125;SDS011;40360;52.992;6.796;2022-11-20T16:12:54;17.40;;;12.05;;
54125;SDS011;40360;52.992;6.796;2022-11-20T16:15:38;15.68;;;11.27;;
54125;SDS011;40360;52.992;6.796;2022-11-20T16:18:10;14.98;;;11.45;;
54125;SDS011;40360;52.992;6.796;2022-11-20T16:20:37;16.40;;;11.82;;
54125;SDS011;40360;52.992;6.796;2022-11-20T16:23:03;17.92;;;11.60;;
54125;SDS011;40360;52.992;6.796;2022-11-20T16:25:29;17.17;;;12.15;;
54125;SDS011;40360;52.992;6.796;2022-11-20T16:27:55;14.07;;;10.55;;
54125;SDS011;40360;52.992;6.796;2022-11-20T16:30:20;16.85;;;12.18;;
54125;SDS011;40360;52.992;6.796;2022-11-20T16:32:46;15.48;;;11.65;;
54125;SDS011;40360;52.992;6.796;2022-11-20T16:35:11;15.32;;;11.20;;
54125;SDS011;40360;52.992;6.796;2022-11-20T16:37:37;14.38;;;10.85;;
54125;SDS011;40360;52.992;6.796;2022-11-20T16:40:04;14.60;;;10.75;;